Time;durP1;ratioP1;P1;durP2;ratioP2;P2;SDS_P1;SDS_P2;PMS_P1;PMS_P2;Temp;Humidity;BMP_temperature;BMP_pressure;BME280_temperature;BME280_humidity;BME280_pressure;Samples;Min_cycle;Max_cycle;Signal;HPM_P1;HPM_P2
2021/08/28 00:01:21;;;;;;;1999.90;999.90;;;;;;;;;;5084868;28;20460;-85
2021/08/28 00:03:48;;;;;;;1999.90;999.90;;;;;;;;;;5086329;28;20474;-85
2021/08/28 00:06:15;;;;;;;1999.90;999.90;;;;;;;;;;5085045;28;20539;-86
2021/08/28 00:08:42;;;;;;;1999.90;999.90;;;;;;;;;;5086180;28;20461;-85
2021/08/28 00:11:09;;;;;;;1999.90;999.90;;;;;;;;;;5086272;28;20457;-86
2021/08/28 00:13:36;;;;;;;1999.90;999.90;;;;;;;;;;5086919;28;20468;-84
2021/08/28 00:16:03;;;;;;;1999.90;999.90;;;;;;;;;;5088283;28;20444;-84
2021/08/28 00:18:32;;;;;;;1999.90;999.90;;;;;;;;;;5086148;28;20495;-85
2021/08/28 00:20:59;;;;;;;1999.90;999.90;;;;;;;;;;5086687;28;20449;-85
2021/08/28 00:23:26;;;;;;;1999.90;999.90;;;;;;;;;;5087868;28;20463;-85
2021/08/28 00:25:54;;;;;;;1999.90;999.90;;;;;;;;;;5087896;28;20471;-85
2021/08/28 00:28:21;;;;;;;1999.90;999.90;;;;;;;;;;5088816;28;20452;-85
2021/08/28 00:30:48;;;;;;;1999.90;999.90;;;;;;;;;;5091481;28;20448;-85
2021/08/28 00:33:16;;;;;;;1999.90;999.90;;;;;;;;;;5089810;28;20537;-85
2021/08/28 00:35:44;;;;;;;1999.90;999.90;;;;;;;;;;5089657;28;20535;-84
2021/08/28 00:38:12;;;;;;;1999.90;999.90;;;;;;;;;;5088552;28;21045;-85
2021/08/28 00:40:40;;;;;;;1999.90;999.90;;;;;;;;;;5089467;28;20530;-85
2021/08/28 00:43:07;;;;;;;1999.90;999.90;;;;;;;;;;5086590;28;20445;-85
2021/08/28 00:45:35;;;;;;;1999.90;999.90;;;;;;;;;;5089497;28;20445;-86
2021/08/28 00:48:02;;;;;;;1999.90;999.90;;;;;;;;;;5085770;28;20465;-84
2021/08/28 00:50:31;;;;;;;1999.90;999.90;;;;;;;;;;5085769;28;20463;-85
2021/08/28 00:52:59;;;;;;;1999.90;999.90;;;;;;;;;;5087136;28;20981;-85
2021/08/28 00:55:26;;;;;;;1999.90;999.90;;;;;;;;;;5087086;28;20484;-85
2021/08/28 00:57:54;;;;;;;1999.90;999.90;;;;;;;;;;5087175;28;20511;-86
2021/08/28 01:00:22;;;;;;;1999.90;999.90;;;;;;;;;;5089308;28;20449;-86
2021/08/28 01:02:51;;;;;;;1999.90;999.90;;;;;;;;;;5087459;28;20507;-85
2021/08/28 01:05:20;;;;;;;1999.90;999.90;;;;;;;;;;5089996;28;20468;-85
2021/08/28 01:07:52;;;;;;;1999.90;999.90;;;;;;;;;;5090001;28;20446;-85
2021/08/28 01:10:21;;;;;;;1999.90;999.90;;;;;;;;;;5091658;28;20433;-85
2021/08/28 01:12:50;;;;;;;1999.90;999.90;;;;;;;;;;5090445;28;20462;-85
2021/08/28 01:15:22;;;;;;;1999.90;999.90;;;;;;;;;;5091907;28;20471;-85
2021/08/28 01:17:49;;;;;;;1999.90;999.90;;;;;;;;;;5092300;28;20439;-86
2021/08/28 01:20:20;;;;;;;1999.90;999.90;;;;;;;;;;5091715;28;20547;-85
2021/08/28 01:22:49;;;;;;;1999.90;999.90;;;;;;;;;;5093100;28;20448;-85
2021/08/28 01:25:17;;;;;;;1999.90;999.90;;;;;;;;;;5092629;28;20478;-84
2021/08/28 01:27:49;;;;;;;1999.90;999.90;;;;;;;;;;5083637;28;20956;-83
2021/08/28 01:30:19;;;;;;;1999.90;999.90;;;;;;;;;;5076785;28;20460;-84
2021/08/28 01:32:46;;;;;;;1999.90;999.90;;;;;;;;;;5076999;28;20455;-83
2021/08/28 01:35:15;;;;;;;1999.90;999.90;;;;;;;;;;5076128;28;20479;-84
2021/08/28 01:37:43;;;;;;;1999.90;999.90;;;;;;;;;;5076172;28;20465;-84
2021/08/28 01:40:11;;;;;;;1999.90;999.90;;;;;;;;;;5074607;28;20494;-84
2021/08/28 01:42:38;;;;;;;1999.90;999.90;;;;;;;;;;5075611;28;20459;-84
2021/08/28 01:45:07;;;;;;;1999.90;999.90;;;;;;;;;;5075033;28;20473;-84
2021/08/28 01:47:36;;;;;;;1999.90;999.90;;;;;;;;;;5080780;28;20466;-84
2021/08/28 01:50:03;;;;;;;1999.90;999.90;;;;;;;;;;5088092;28;20506;-84
2021/08/28 01:52:30;;;;;;;1999.90;999.90;;;;;;;;;;5087770;28;21016;-85
2021/08/28 01:54:57;;;;;;;1999.90;999.90;;;;;;;;;;5087742;28;20551;-84
2021/08/28 01:57:24;;;;;;;1999.90;999.90;;;;;;;;;;5088053;28;20457;-85
2021/08/28 01:59:52;;;;;;;1999.90;999.90;;;;;;;;;;5089301;28;20545;-83
2021/08/28 02:02:19;;;;;;;1999.90;999.90;;;;;;;;;;5088581;28;20520;-85
2021/08/28 02:04:48;;;;;;;1999.90;999.90;;;;;;;;;;5088862;28;20497;-85
2021/08/28 02:07:18;;;;;;;1999.90;999.90;;;;;;;;;;5088836;28;20445;-85
2021/08/28 02:09:47;;;;;;;1999.90;999.90;;;;;;;;;;5090154;28;20541;-85
2021/08/28 02:12:17;;;;;;;1999.90;999.90;;;;;;;;;;5090162;28;20529;-84
2021/08/28 02:14:49;;;;;;;1999.90;999.90;;;;;;;;;;5089216;28;20559;-84
2021/08/28 02:17:16;;;;;;;1999.90;999.90;;;;;;;;;;5089104;28;20455;-85
2021/08/28 02:19:44;;;;;;;1999.90;999.90;;;;;;;;;;5088723;28;20568;-86
2021/08/28 02:22:15;;;;;;;1999.90;999.90;;;;;;;;;;5090376;28;20484;-85
2021/08/28 02:24:43;;;;;;;1999.90;999.90;;;;;;;;;;5089626;28;20486;-85
2021/08/28 02:27:13;;;;;;;1999.90;999.90;;;;;;;;;;5087966;28;20452;-84
2021/08/28 02:29:47;;;;;;;1999.90;999.90;;;;;;;;;;5086565;28;20439;-85
2021/08/28 02:32:16;;;;;;;1999.90;999.90;;;;;;;;;;5091021;28;20983;-85
2021/08/28 02:34:44;;;;;;;1999.90;999.90;;;;;;;;;;5090865;28;20464;-84
2021/08/28 02:37:13;;;;;;;1999.90;999.90;;;;;;;;;;5091535;28;20452;-84
2021/08/28 02:39:42;;;;;;;1999.90;999.90;;;;;;;;;;5086520;28;20480;-84
2021/08/28 02:42:10;;;;;;;1999.90;999.90;;;;;;;;;;5084020;28;20462;-84
2021/08/28 02:44:39;;;;;;;1999.90;999.90;;;;;;;;;;5084459;28;20563;-85
2021/08/28 02:47:07;;;;;;;1999.90;999.90;;;;;;;;;;5081419;28;20504;-84
2021/08/28 02:49:34;;;;;;;1999.90;999.90;;;;;;;;;;5079954;28;20455;-83
2021/08/28 02:52:03;;;;;;;1999.90;999.90;;;;;;;;;;5085051;28;20533;-83
2021/08/28 02:54:32;;;;;;;1999.90;999.90;;;;;;;;;;5085981;28;20481;-85
2021/08/28 02:57:00;;;;;;;1999.90;999.90;;;;;;;;;;5086763;28;20850;-85
2021/08/28 02:59:28;;;;;;;1999.90;999.90;;;;;;;;;;5086203;28;20498;-84
2021/08/28 03:01:55;;;;;;;1999.90;999.90;;;;;;;;;;5086288;28;20452;-84
2021/08/28 03:04:24;;;;;;;1999.90;999.90;;;;;;;;;;5087744;28;20477;-84
2021/08/28 03:06:51;;;;;;;1999.90;999.90;;;;;;;;;;5088276;28;21022;-84
2021/08/28 03:09:19;;;;;;;1999.90;999.90;;;;;;;;;;5088279;28;20451;-84
2021/08/28 03:11:47;;;;;;;1999.90;999.90;;;;;;;;;;5088749;28;20453;-86
2021/08/28 03:14:15;;;;;;;1999.90;999.90;;;;;;;;;;5088901;28;20467;-85
2021/08/28 03:16:43;;;;;;;1999.90;999.90;;;;;;;;;;5089613;28;20467;-84
2021/08/28 03:19:11;;;;;;;1999.90;999.90;;;;;;;;;;5088352;28;20576;-86
2021/08/28 03:21:40;;;;;;;1999.90;999.90;;;;;;;;;;5088280;28;20525;-85
2021/08/28 03:24:08;;;;;;;1999.90;999.90;;;;;;;;;;5087582;28;20497;-85
2021/08/28 03:26:35;;;;;;;1999.90;999.90;;;;;;;;;;5088545;28;20456;-85
2021/08/28 03:29:04;;;;;;;1999.90;999.90;;;;;;;;;;5088162;28;20459;-85
2021/08/28 03:31:32;;;;;;;1999.90;999.90;;;;;;;;;;5087348;28;20458;-84
2021/08/28 03:34:01;;;;;;;1999.90;999.90;;;;;;;;;;5088175;28;20477;-85
2021/08/28 03:36:29;;;;;;;1999.90;999.90;;;;;;;;;;5088404;28;21131;-84
2021/08/28 03:38:56;;;;;;;1999.90;999.90;;;;;;;;;;5087938;28;20460;-83
2021/08/28 03:41:23;;;;;;;1999.90;999.90;;;;;;;;;;5087998;28;20447;-86
2021/08/28 03:43:50;;;;;;;1999.90;999.90;;;;;;;;;;5087355;28;20470;-85
2021/08/28 03:46:19;;;;;;;1999.90;999.90;;;;;;;;;;5086827;28;20441;-85
2021/08/28 03:48:46;;;;;;;1999.90;999.90;;;;;;;;;;5088187;28;20936;-84
2021/08/28 03:51:13;;;;;;;1999.90;999.90;;;;;;;;;;5085184;28;20865;-86
2021/08/28 03:53:40;;;;;;;1999.90;999.90;;;;;;;;;;5083784;28;20566;-85
2021/08/28 03:56:07;;;;;;;1999.90;999.90;;;;;;;;;;5077331;28;20578;-88
2021/08/28 03:58:35;;;;;;;1999.90;999.90;;;;;;;;;;5075315;28;20451;-85
2021/08/28 04:01:02;;;;;;;1999.90;999.90;;;;;;;;;;5075197;28;20491;-86
2021/08/28 04:03:31;;;;;;;1999.90;999.90;;;;;;;;;;5077859;28;20472;-85
2021/08/28 04:05:58;;;;;;;1999.90;999.90;;;;;;;;;;5081240;28;20465;-87
2021/08/28 04:08:25;;;;;;;1999.90;999.90;;;;;;;;;;5081750;28;20473;-86
2021/08/28 04:10:52;;;;;;;1999.90;999.90;;;;;;;;;;5081095;28;20455;-85
2021/08/28 04:13:19;;;;;;;1999.90;999.90;;;;;;;;;;5081318;28;20518;-85
2021/08/28 04:15:46;;;;;;;1999.90;999.90;;;;;;;;;;5081292;28;20450;-85
2021/08/28 04:18:13;;;;;;;1999.90;999.90;;;;;;;;;;5081135;28;20451;-86
2021/08/28 04:20:42;;;;;;;1999.90;999.90;;;;;;;;;;5080906;28;20507;-85
2021/08/28 04:23:09;;;;;;;1999.90;999.90;;;;;;;;;;5081218;28;20443;-85
2021/08/28 04:25:36;;;;;;;1999.90;999.90;;;;;;;;;;5094839;28;20442;-87
2021/08/28 04:28:04;;;;;;;1999.90;999.90;;;;;;;;;;5100634;28;20451;-86
2021/08/28 04:30:32;;;;;;;1999.90;999.90;;;;;;;;;;5083927;28;20474;-85
2021/08/28 04:32:59;;;;;;;1999.90;999.90;;;;;;;;;;5081408;28;20457;-85
2021/08/28 04:35:26;;;;;;;1999.90;999.90;;;;;;;;;;5080342;28;20481;-86
2021/08/28 04:37:54;;;;;;;1999.90;999.90;;;;;;;;;;5081144;28;20558;-86
2021/08/28 04:40:21;;;;;;;1999.90;999.90;;;;;;;;;;5080503;28;20863;-88
2021/08/28 04:42:49;;;;;;;1999.90;999.90;;;;;;;;;;5080428;28;20455;-86
2021/08/28 04:45:16;;;;;;;1999.90;999.90;;;;;;;;;;5080025;28;20477;-87
2021/08/28 04:47:43;;;;;;;1999.90;999.90;;;;;;;;;;5079373;28;20827;-88
2021/08/28 04:50:11;;;;;;;1999.90;999.90;;;;;;;;;;5078499;28;20445;-86
2021/08/28 04:52:38;;;;;;;1999.90;999.90;;;;;;;;;;5078377;28;20453;-87
2021/08/28 04:55:07;;;;;;;1999.90;999.90;;;;;;;;;;5105313;22;20880;-82
2021/08/28 04:57:34;;;;;;;1999.90;999.90;;;;;;;;;;5100665;28;20446;-83
2021/08/28 05:00:01;;;;;;;1999.90;999.90;;;;;;;;;;5100303;28;21034;-83
2021/08/28 05:02:28;;;;;;;1999.90;999.90;;;;;;;;;;5100562;28;20529;-82
2021/08/28 05:04:56;;;;;;;1999.90;999.90;;;;;;;;;;5100455;28;20462;-83
2021/08/28 05:07:24;;;;;;;1999.90;999.90;;;;;;;;;;5100606;28;20454;-84
2021/08/28 05:09:51;;;;;;;1999.90;999.90;;;;;;;;;;5101019;28;20445;-84
2021/08/28 05:12:20;;;;;;;1999.90;999.90;;;;;;;;;;5100800;28;20456;-83
2021/08/28 05:14:47;;;;;;;1999.90;999.90;;;;;;;;;;5098462;28;20490;-83
2021/08/28 05:17:14;;;;;;;1999.90;999.90;;;;;;;;;;5096921;28;20974;-83
2021/08/28 05:19:41;;;;;;;1999.90;999.90;;;;;;;;;;5096975;28;20482;-81
2021/08/28 05:22:08;;;;;;;1999.90;999.90;;;;;;;;;;5096877;28;20943;-79
2021/08/28 05:24:37;;;;;;;1999.90;999.90;;;;;;;;;;5095810;28;20474;-81
2021/08/28 05:27:05;;;;;;;1999.90;999.90;;;;;;;;;;5095454;28;21015;-81
2021/08/28 05:29:33;;;;;;;1999.90;999.90;;;;;;;;;;5096070;28;20459;-81
2021/08/28 05:32:00;;;;;;;1999.90;999.90;;;;;;;;;;5096274;28;20457;-81
2021/08/28 05:34:27;;;;;;;1999.90;999.90;;;;;;;;;;5095613;28;20478;-82
2021/08/28 05:36:54;;;;;;;1999.90;999.90;;;;;;;;;;5095538;28;20454;-81
2021/08/28 05:39:21;;;;;;;1999.90;999.90;;;;;;;;;;5095697;28;20452;-81
2021/08/28 05:41:48;;;;;;;1999.90;999.90;;;;;;;;;;5095727;28;20474;-82
2021/08/28 05:44:16;;;;;;;1999.90;999.90;;;;;;;;;;5095934;28;20482;-82
2021/08/28 05:46:44;;;;;;;1999.90;999.90;;;;;;;;;;5095063;28;20452;-82
2021/08/28 05:49:11;;;;;;;1999.90;999.90;;;;;;;;;;5095856;28;20472;-82
2021/08/28 05:51:38;;;;;;;1999.90;999.90;;;;;;;;;;5095438;28;20452;-83
2021/08/28 05:54:05;;;;;;;1999.90;999.90;;;;;;;;;;5095279;28;21000;-82
2021/08/28 05:56:33;;;;;;;1999.90;999.90;;;;;;;;;;5096090;28;20450;-82
2021/08/28 05:59:00;;;;;;;1999.90;999.90;;;;;;;;;;5095417;28;20832;-82
2021/08/28 06:01:27;;;;;;;1999.90;999.90;;;;;;;;;;5095199;28;20492;-82
2021/08/28 06:03:56;;;;;;;1999.90;999.90;;;;;;;;;;5095514;28;20456;-82
2021/08/28 06:06:23;;;;;;;1999.90;999.90;;;;;;;;;;5095421;28;20450;-83
2021/08/28 06:08:50;;;;;;;1999.90;999.90;;;;;;;;;;5095106;28;20448;-82
2021/08/28 06:11:17;;;;;;;1999.90;999.90;;;;;;;;;;5094893;28;20823;-83
2021/08/28 06:13:44;;;;;;;1999.90;999.90;;;;;;;;;;5094432;28;20484;-82
2021/08/28 06:16:12;;;;;;;1999.90;999.90;;;;;;;;;;5094526;28;21165;-82
2021/08/28 06:18:39;;;;;;;1999.90;999.90;;;;;;;;;;5094746;28;20450;-82
2021/08/28 06:21:07;;;;;;;1999.90;999.90;;;;;;;;;;5094439;28;20489;-82
2021/08/28 06:23:34;;;;;;;1999.90;999.90;;;;;;;;;;5094445;28;20450;-82
2021/08/28 06:26:01;;;;;;;1999.90;999.90;;;;;;;;;;5094107;28;20471;-82
2021/08/28 06:28:28;;;;;;;1999.90;999.90;;;;;;;;;;5094075;28;20454;-82
2021/08/28 06:30:55;;;;;;;1999.90;999.90;;;;;;;;;;5094393;28;20516;-82
2021/08/28 06:33:23;;;;;;;1999.90;999.90;;;;;;;;;;5093931;28;20470;-83
2021/08/28 06:35:50;;;;;;;1999.90;999.90;;;;;;;;;;5093813;28;21026;-82
2021/08/28 06:38:18;;;;;;;1999.90;999.90;;;;;;;;;;5094699;28;20446;-83
2021/08/28 06:40:45;;;;;;;1999.90;999.90;;;;;;;;;;5094254;28;21008;-83
2021/08/28 06:43:12;;;;;;;1999.90;999.90;;;;;;;;;;5094389;28;20529;-82
2021/08/28 06:45:39;;;;;;;1999.90;999.90;;;;;;;;;;5093827;28;20473;-83
2021/08/28 06:48:08;;;;;;;1999.90;999.90;;;;;;;;;;5094245;28;20446;-83
2021/08/28 06:50:35;;;;;;;1999.90;999.90;;;;;;;;;;5093968;28;20442;-83
2021/08/28 06:53:02;;;;;;;1999.90;999.90;;;;;;;;;;5093641;28;20450;-83
2021/08/28 06:55:31;;;;;;;1999.90;999.90;;;;;;;;;;5093255;28;20483;-83
2021/08/28 06:57:58;;;;;;;1999.90;999.90;;;;;;;;;;5093254;28;20958;-82
2021/08/28 07:00:25;;;;;;;1999.90;999.90;;;;;;;;;;5093445;28;20478;-83
2021/08/28 07:02:52;;;;;;;1999.90;999.90;;;;;;;;;;5093223;28;20450;-83
2021/08/28 07:05:20;;;;;;;1999.90;999.90;;;;;;;;;;5093075;28;21000;-83
2021/08/28 07:07:48;;;;;;;1999.90;999.90;;;;;;;;;;5092977;28;20524;-83
2021/08/28 07:10:15;;;;;;;1999.90;999.90;;;;;;;;;;5093586;28;20482;-84
2021/08/28 07:12:44;;;;;;;1999.90;999.90;;;;;;;;;;5093159;28;20836;-83
2021/08/28 07:15:12;;;;;;;1999.90;999.90;;;;;;;;;;5093281;28;20531;-82
2021/08/28 07:17:39;;;;;;;1999.90;999.90;;;;;;;;;;5092646;28;20463;-83
2021/08/28 07:20:07;;;;;;;1999.90;999.90;;;;;;;;;;5092617;28;20465;-82
2021/08/28 07:22:34;;;;;;;1999.90;999.90;;;;;;;;;;5092487;28;20448;-82
2021/08/28 07:25:01;;;;;;;1999.90;999.90;;;;;;;;;;5092471;28;20468;-83
2021/08/28 07:27:28;;;;;;;1999.90;999.90;;;;;;;;;;5092334;28;20449;-82
2021/08/28 07:29:57;;;;;;;1999.90;999.90;;;;;;;;;;5092427;28;20824;-82
2021/08/28 07:32:24;;;;;;;1999.90;999.90;;;;;;;;;;5092365;28;20458;-83
2021/08/28 07:34:54;;;;;;;1999.90;999.90;;;;;;;;;;5092668;28;20466;-82
2021/08/28 07:37:22;;;;;;;1999.90;999.90;;;;;;;;;;5095187;28;20488;-82
2021/08/28 07:39:50;;;;;;;1999.90;999.90;;;;;;;;;;5098057;28;20447;-83
2021/08/28 07:42:17;;;;;;;1999.90;999.90;;;;;;;;;;5097967;28;20475;-82
2021/08/28 07:44:45;;;;;;;1999.90;999.90;;;;;;;;;;5095492;28;20470;-81
2021/08/28 07:47:13;;;;;;;1999.90;999.90;;;;;;;;;;5094928;28;20471;-83
2021/08/28 07:49:40;;;;;;;1999.90;999.90;;;;;;;;;;5095609;28;20444;-83
2021/08/28 07:52:07;;;;;;;1999.90;999.90;;;;;;;;;;5095681;28;20449;-84
2021/08/28 07:54:35;;;;;;;1999.90;999.90;;;;;;;;;;5095699;28;20480;-83
2021/08/28 07:57:02;;;;;;;1999.90;999.90;;;;;;;;;;5096017;28;21040;-83
2021/08/28 07:59:29;;;;;;;1999.90;999.90;;;;;;;;;;5095234;28;20488;-84
2021/08/28 08:01:57;;;;;;;1999.90;999.90;;;;;;;;;;5095523;28;20483;-84
2021/08/28 08:04:25;;;;;;;1999.90;999.90;;;;;;;;;;5095146;28;20466;-84
2021/08/28 08:06:52;;;;;;;1999.90;999.90;;;;;;;;;;5095022;28;20452;-83
2021/08/28 08:09:20;;;;;;;1999.90;999.90;;;;;;;;;;5095003;28;20824;-83
2021/08/28 08:11:47;;;;;;;1999.90;999.90;;;;;;;;;;5095347;28;20442;-83
2021/08/28 08:14:14;;;;;;;1999.90;999.90;;;;;;;;;;5094752;28;20469;-84
2021/08/28 08:16:41;;;;;;;1999.90;999.90;;;;;;;;;;5095002;28;20459;-84
2021/08/28 08:19:08;;;;;;;1999.90;999.90;;;;;;;;;;5095491;28;20446;-83
2021/08/28 08:21:37;;;;;;;1999.90;999.90;;;;;;;;;;5096452;28;20485;-84
2021/08/28 08:24:05;;;;;;;1999.90;999.90;;;;;;;;;;5096538;28;20477;-84
2021/08/28 08:26:32;;;;;;;1999.90;999.90;;;;;;;;;;5095840;28;20536;-84
2021/08/28 08:28:59;;;;;;;1999.90;999.90;;;;;;;;;;5095557;28;20953;-85
2021/08/28 08:31:27;;;;;;;1999.90;999.90;;;;;;;;;;5095059;28;20461;-84
2021/08/28 08:33:54;;;;;;;1999.90;999.90;;;;;;;;;;5095108;28;20446;-85
2021/08/28 08:36:21;;;;;;;1999.90;999.90;;;;;;;;;;5095096;28;20434;-82
2021/08/28 08:38:50;;;;;;;1999.90;999.90;;;;;;;;;;5097234;28;20463;-83
2021/08/28 08:41:18;;;;;;;1999.90;999.90;;;;;;;;;;5098872;28;20480;-84
2021/08/28 08:43:45;;;;;;;1999.90;999.90;;;;;;;;;;5097878;28;20540;-84
2021/08/28 08:46:12;;;;;;;1999.90;999.90;;;;;;;;;;5098261;28;20473;-84
2021/08/28 08:48:39;;;;;;;1999.90;999.90;;;;;;;;;;5097980;28;20457;-85
2021/08/28 08:51:06;;;;;;;1999.90;999.90;;;;;;;;;;5100856;28;20461;-85
2021/08/28 08:53:34;;;;;;;1999.90;999.90;;;;;;;;;;5100806;28;20445;-84
2021/08/28 08:56:04;;;;;;;1999.90;999.90;;;;;;;;;;5101521;28;20485;-84
2021/08/28 08:58:31;;;;;;;1999.90;999.90;;;;;;;;;;5099682;28;20512;-85
2021/08/28 09:00:58;;;;;;;1999.90;999.90;;;;;;;;;;5100465;28;20526;-85
2021/08/28 09:03:25;;;;;;;1999.90;999.90;;;;;;;;;;5100498;28;20464;-85
2021/08/28 09:05:53;;;;;;;1999.90;999.90;;;;;;;;;;5100000;28;20484;-85
2021/08/28 09:08:20;;;;;;;1999.90;999.90;;;;;;;;;;5099756;28;20473;-84
2021/08/28 09:10:47;;;;;;;1999.90;999.90;;;;;;;;;;5099606;28;20438;-86
2021/08/28 09:13:17;;;;;;;1999.90;999.90;;;;;;;;;;5100291;28;20466;-86
2021/08/28 09:15:45;;;;;;;1999.90;999.90;;;;;;;;;;5099424;28;20467;-88
2021/08/28 09:18:13;;;;;;;1999.90;999.90;;;;;;;;;;5099831;28;20505;-86
2021/08/28 09:20:40;;;;;;;1999.90;999.90;;;;;;;;;;5100068;28;20460;-86
2021/08/28 09:23:08;;;;;;;1999.90;999.90;;;;;;;;;;5099913;28;20448;-86
2021/08/28 09:25:38;;;;;;;1999.90;999.90;;;;;;;;;;5098610;28;20503;-86
2021/08/28 09:28:05;;;;;;;1999.90;999.90;;;;;;;;;;5099227;28;20785;-86
2021/08/28 09:30:36;;;;;;;1999.90;999.90;;;;;;;;;;5098892;28;20453;-86
2021/08/28 09:33:04;;;;;;;1999.90;999.90;;;;;;;;;;5098833;28;20943;-86
2021/08/28 09:35:31;;;;;;;1999.90;999.90;;;;;;;;;;5098092;28;20476;-86
2021/08/28 09:37:59;;;;;;;1999.90;999.90;;;;;;;;;;5098133;28;20453;-86
2021/08/28 09:40:28;;;;;;;1999.90;999.90;;;;;;;;;;5098162;28;20446;-86
2021/08/28 09:42:56;;;;;;;1999.90;999.90;;;;;;;;;;5098021;28;20935;-86
2021/08/28 09:45:24;;;;;;;1999.90;999.90;;;;;;;;;;5098425;28;20479;-85
2021/08/28 09:47:53;;;;;;;1999.90;999.90;;;;;;;;;;5098628;28;20904;-87
2021/08/28 09:50:31;;;;;;;1999.90;999.90;;;;;;;;;;5098224;28;20509;-86
2021/08/28 09:53:02;;;;;;;1999.90;999.90;;;;;;;;;;5098819;28;20534;-85
2021/08/28 09:55:30;;;;;;;1999.90;999.90;;;;;;;;;;5098730;28;20492;-86
2021/08/28 09:57:58;;;;;;;1999.90;999.90;;;;;;;;;;5100002;28;20529;-86
2021/08/28 10:00:25;;;;;;;1999.90;999.90;;;;;;;;;;5098471;28;20469;-86
2021/08/28 10:02:58;;;;;;;1999.90;999.90;;;;;;;;;;5097614;28;20523;-86
2021/08/28 10:05:27;;;;;;;1999.90;999.90;;;;;;;;;;5098046;28;20505;-86
2021/08/28 10:07:56;;;;;;;1999.90;999.90;;;;;;;;;;5098128;28;20463;-86
2021/08/28 10:10:23;;;;;;;1999.90;999.90;;;;;;;;;;5098494;28;20460;-86
2021/08/28 10:12:51;;;;;;;1999.90;999.90;;;;;;;;;;5098234;28;20446;-86
2021/08/28 10:15:20;;;;;;;1999.90;999.90;;;;;;;;;;5098393;28;20453;-86
2021/08/28 10:17:48;;;;;;;1999.90;999.90;;;;;;;;;;5098615;28;20459;-86
2021/08/28 10:20:17;;;;;;;1999.90;999.90;;;;;;;;;;5098842;28;20541;-86
2021/08/28 10:22:44;;;;;;;1999.90;999.90;;;;;;;;;;5095169;28;20496;-85
2021/08/28 10:25:12;;;;;;;1999.90;999.90;;;;;;;;;;5099339;28;20472;-86
2021/08/28 10:27:40;;;;;;;1999.90;999.90;;;;;;;;;;5099118;28;20960;-86
2021/08/28 10:30:09;;;;;;;1999.90;999.90;;;;;;;;;;5097924;28;20459;-86
2021/08/28 10:32:36;;;;;;;1999.90;999.90;;;;;;;;;;5099791;28;20870;-86
2021/08/28 10:35:04;;;;;;;1999.90;999.90;;;;;;;;;;5099157;28;20505;-86
2021/08/28 10:37:32;;;;;;;1999.90;999.90;;;;;;;;;;5099042;28;20972;-86
2021/08/28 10:39:59;;;;;;;1999.90;999.90;;;;;;;;;;5107110;28;20441;-87
2021/08/28 10:42:30;;;;;;;1999.90;999.90;;;;;;;;;;5100112;28;20477;-87
2021/08/28 10:45:00;;;;;;;1999.90;999.90;;;;;;;;;;5099612;28;20483;-86
2021/08/28 10:47:28;;;;;;;1999.90;999.90;;;;;;;;;;5099466;28;20454;-86
2021/08/28 10:49:57;;;;;;;1999.90;999.90;;;;;;;;;;5099019;28;20448;-86
2021/08/28 10:52:25;;;;;;;1999.90;999.90;;;;;;;;;;5098593;28;20443;-87
2021/08/28 10:54:57;;;;;;;1999.90;999.90;;;;;;;;;;5123968;22;20508;-85
2021/08/28 10:57:28;;;;;;;1999.90;999.90;;;;;;;;;;5079873;28;21060;-85
2021/08/28 11:00:02;;;;;;;1999.90;999.90;;;;;;;;;;5081667;28;20479;-85
2021/08/28 11:02:44;;;;;;;1999.90;999.90;;;;;;;;;;5081158;28;21022;-86
2021/08/28 11:05:15;;;;;;;1999.90;999.90;;;;;;;;;;5078277;28;20485;-85
2021/08/28 11:07:43;;;;;;;1999.90;999.90;;;;;;;;;;5081839;28;20942;-85
2021/08/28 11:10:16;;;;;;;1999.90;999.90;;;;;;;;;;5082356;28;20449;-85
2021/08/28 11:12:59;;;;;;;1999.90;999.90;;;;;;;;;;5081613;28;21041;-85
2021/08/28 11:18:44;;;;;;;1999.90;999.90;;;;;;;;;;5080255;28;20894;-84
2021/08/28 11:21:12;;;;;;;1999.90;999.90;;;;;;;;;;5082489;28;20445;-87
2021/08/28 11:23:44;;;;;;;1999.90;999.90;;;;;;;;;;5082887;28;20469;-87
2021/08/28 11:26:14;;;;;;;1999.90;999.90;;;;;;;;;;5082311;28;21018;-85
2021/08/28 11:28:43;;;;;;;1999.90;999.90;;;;;;;;;;5082111;28;20446;-86
2021/08/28 11:31:11;;;;;;;1999.90;999.90;;;;;;;;;;5081378;28;20475;-86
2021/08/28 11:33:39;;;;;;;1999.90;999.90;;;;;;;;;;5082237;28;20447;-86
2021/08/28 11:36:07;;;;;;;1999.90;999.90;;;;;;;;;;5081860;28;20700;-86
2021/08/28 11:38:38;;;;;;;1999.90;999.90;;;;;;;;;;5082914;28;20546;-85
2021/08/28 11:41:07;;;;;;;1999.90;999.90;;;;;;;;;;5081243;28;21040;-85
2021/08/28 11:43:37;;;;;;;1999.90;999.90;;;;;;;;;;5081554;28;20553;-85
2021/08/28 11:46:06;;;;;;;1999.90;999.90;;;;;;;;;;5081453;28;20554;-86
2021/08/28 11:48:35;;;;;;;1999.90;999.90;;;;;;;;;;5082371;28;20451;-87
2021/08/28 11:51:02;;;;;;;1999.90;999.90;;;;;;;;;;5081118;28;20538;-86
2021/08/28 11:53:30;;;;;;;1999.90;999.90;;;;;;;;;;5081945;28;20457;-86
2021/08/28 11:56:09;;;;;;;1999.90;999.90;;;;;;;;;;5081190;28;20490;-87
2021/08/28 11:58:49;;;;;;;1999.90;999.90;;;;;;;;;;5080062;28;20447;-85
2021/08/28 12:01:33;;;;;;;1999.90;999.90;;;;;;;;;;5081859;28;20510;-84
2021/08/28 12:04:01;;;;;;;1999.90;999.90;;;;;;;;;;5081216;28;20451;-85
2021/08/28 12:06:29;;;;;;;1999.90;999.90;;;;;;;;;;5080814;28;20463;-85
2021/08/28 12:08:56;;;;;;;1999.90;999.90;;;;;;;;;;5080407;28;20451;-87
2021/08/28 12:11:24;;;;;;;1999.90;999.90;;;;;;;;;;5079378;28;20451;-85
2021/08/28 12:13:54;;;;;;;1999.90;999.90;;;;;;;;;;5080360;28;20457;-82
2021/08/28 12:16:25;;;;;;;1999.90;999.90;;;;;;;;;;5079844;28;20466;-82
2021/08/28 12:18:59;;;;;;;1999.90;999.90;;;;;;;;;;5079866;28;20865;-82
2021/08/28 12:21:26;;;;;;;1999.90;999.90;;;;;;;;;;5080129;28;21046;-84
2021/08/28 12:23:53;;;;;;;1999.90;999.90;;;;;;;;;;5080358;28;20455;-83
2021/08/28 12:26:21;;;;;;;1999.90;999.90;;;;;;;;;;5083417;28;20479;-85
2021/08/28 12:28:48;;;;;;;1999.90;999.90;;;;;;;;;;5085012;28;20865;-83
2021/08/28 12:31:18;;;;;;;1999.90;999.90;;;;;;;;;;5094082;28;20478;-82
2021/08/28 12:33:46;;;;;;;1999.90;999.90;;;;;;;;;;5097234;28;20506;-86
2021/08/28 12:36:31;;;;;;;1999.90;999.90;;;;;;;;;;5092481;28;20466;-82
2021/08/28 12:39:07;;;;;;;1999.90;999.90;;;;;;;;;;5090003;28;20446;-85
2021/08/28 12:41:35;;;;;;;1999.90;999.90;;;;;;;;;;5081540;28;20446;-84
2021/08/28 12:44:03;;;;;;;1999.90;999.90;;;;;;;;;;5084606;28;20451;-83
2021/08/28 12:46:31;;;;;;;1999.90;999.90;;;;;;;;;;5086283;28;20514;-84
2021/08/28 12:49:11;;;;;;;1999.90;999.90;;;;;;;;;;5084739;28;20938;-83
2021/08/28 12:51:38;;;;;;;1999.90;999.90;;;;;;;;;;5083558;28;20459;-83
2021/08/28 12:54:06;;;;;;;1999.90;999.90;;;;;;;;;;5083366;28;20529;-86
2021/08/28 12:56:33;;;;;;;1999.90;999.90;;;;;;;;;;5082476;28;20454;-81
2021/08/28 12:59:00;;;;;;;1999.90;999.90;;;;;;;;;;5080424;28;20451;-83
2021/08/28 13:01:27;;;;;;;1999.90;999.90;;;;;;;;;;5078756;28;20455;-82
2021/08/28 13:03:56;;;;;;;1999.90;999.90;;;;;;;;;;5078542;28;20491;-83
2021/08/28 13:06:24;;;;;;;1999.90;999.90;;;;;;;;;;5078176;28;20470;-81
2021/08/28 13:08:51;;;;;;;1999.90;999.90;;;;;;;;;;5090557;28;20542;-85
2021/08/28 13:11:19;;;;;;;1999.90;999.90;;;;;;;;;;5082432;28;20512;-84
2021/08/28 13:13:54;;;;;;;1999.90;999.90;;;;;;;;;;5084769;28;21012;-86
2021/08/28 13:16:21;;;;;;;1999.90;999.90;;;;;;;;;;5099728;28;20737;-87
2021/08/28 13:19:03;;;;;;;1999.90;999.90;;;;;;;;;;5093389;28;20454;-85
2021/08/28 13:21:37;;;;;;;1999.90;999.90;;;;;;;;;;5092554;28;20449;-85
2021/08/28 13:24:09;;;;;;;1999.90;999.90;;;;;;;;;;5088327;28;20491;-86
2021/08/28 13:26:51;;;;;;;1999.90;999.90;;;;;;;;;;5087911;28;20453;-85
2021/08/28 13:29:25;;;;;;;1999.90;999.90;;;;;;;;;;5086742;28;20511;-84
2021/08/28 13:32:03;;;;;;;1999.90;999.90;;;;;;;;;;5085193;28;20476;-85
2021/08/28 13:34:35;;;;;;;1999.90;999.90;;;;;;;;;;5087284;28;20469;-85
2021/08/28 13:37:05;;;;;;;1999.90;999.90;;;;;;;;;;5085716;28;20446;-85
2021/08/28 13:39:32;;;;;;;1999.90;999.90;;;;;;;;;;5068805;28;20462;-86
2021/08/28 13:41:59;;;;;;;1999.90;999.90;;;;;;;;;;5086221;28;20828;-85
2021/08/28 13:44:27;;;;;;;1999.90;999.90;;;;;;;;;;5086531;28;20475;-87
2021/08/28 13:46:54;;;;;;;1999.90;999.90;;;;;;;;;;5087049;28;21138;-86
2021/08/28 13:49:21;;;;;;;1999.90;999.90;;;;;;;;;;5086468;28;20959;-86
2021/08/28 13:51:49;;;;;;;1999.90;999.90;;;;;;;;;;5088098;28;20514;-88